Terminal Aerodrome Forecast
Issued by NWS Dodge City, KS

Home | Current Version | Previous Version | Graphics & Text | Print | Product List | Glossary Off
Versions: 1 2 3 4 5 6 7 8 9 10 11 12 13 14 15 16 17 18 19 20 21 22 23 24

187
FTUS43 KDDC 192154 AAB
TAFDDC
TAF AMD
KDDC 192154Z 1922/2018 07017G26KT P6SM -RA OVC007
     FM192300 07013G20KT 5SM -RA OVC008
     FM200200 02013G20KT 4SM -TSRA OVC003CB=

USA.gov is the U.S. government's official web portal to all federal, state and local government web resources and services.